Webcam Richtung Westen

Webcam27

Webcam Richtung Norden

Webcam36

Webcam Richtung Osten

Webcam09

Wetter(Würzburg):
232300Z AUTO 34002G04KT 50KM RERA FEW022 SCT051 17/16 Q1019
		
Wed 24.07.2024, 23:00 UTC

Sichtweite bis zu 50 km
kürzlich Regen
Wind aus 340° mit 02kt, in Böen bis zu 04kt
vereinzelte Wolken (1-2 Achtel) bei 2200 Fuß
einige Wolken (3-4 Achtel) bei 5100 Fuß
Temperatur: 17 °C
Taupunkt: 16 °C
QNH: 1019 hPa
                         Heute        Morgen
                         24.07        25.07
--------------------------------------------
Beginn der Dämmerung     03:00        03:01
Sonnenaufgang            03:40        03:41
Sonnenuntergang          19:14        19:12
Ende der Dämmerung       19:54        19:52

Alle Zeiten in UTC